sensor_id;sensor_type;location;lat;lon;timestamp;P1;durP1;ratioP1;P2;durP2;ratioP2
12425;SDS011;6277;49.824;9.562;2023-02-01T00:01:38;1.58;;;1.38;;
12425;SDS011;6277;49.824;9.562;2023-02-01T00:04:04;1.80;;;1.60;;
12425;SDS011;6277;49.824;9.562;2023-02-01T00:06:29;2.25;;;1.52;;
12425;SDS011;6277;49.824;9.562;2023-02-01T00:08:55;1.80;;;1.70;;
12425;SDS011;6277;49.824;9.562;2023-02-01T00:11:21;2.03;;;1.50;;
12425;SDS011;6277;49.824;9.562;2023-02-01T00:13:48;2.67;;;2.03;;
12425;SDS011;6277;49.824;9.562;2023-02-01T00:16:15;1.85;;;1.73;;
12425;SDS011;6277;49.824;9.562;2023-02-01T00:18:45;1.98;;;1.70;;
12425;SDS011;6277;49.824;9.562;2023-02-01T00:21:13;2.53;;;1.73;;
12425;SDS011;6277;49.824;9.562;2023-02-01T00:23:40;2.28;;;1.52;;
12425;SDS011;6277;49.824;9.562;2023-02-01T00:26:09;1.77;;;1.60;;
12425;SDS011;6277;49.824;9.562;2023-02-01T00:28:41;2.38;;;1.65;;
12425;SDS011;6277;49.824;9.562;2023-02-01T00:31:07;2.15;;;1.55;;
12425;SDS011;6277;49.824;9.562;2023-02-01T00:33:33;2.97;;;1.85;;
12425;SDS011;6277;49.824;9.562;2023-02-01T00:35:59;1.70;;;1.50;;
12425;SDS011;6277;49.824;9.562;2023-02-01T00:38:26;2.15;;;1.60;;
12425;SDS011;6277;49.824;9.562;2023-02-01T00:40:52;1.52;;;1.38;;
12425;SDS011;6277;49.824;9.562;2023-02-01T00:43:18;2.08;;;1.85;;
12425;SDS011;6277;49.824;9.562;2023-02-01T00:45:47;2.38;;;1.70;;
12425;SDS011;6277;49.824;9.562;2023-02-01T00:48:12;2.22;;;1.70;;
12425;SDS011;6277;49.824;9.562;2023-02-01T00:50:44;2.85;;;1.70;;
12425;SDS011;6277;49.824;9.562;2023-02-01T00:53:10;2.80;;;1.85;;
12425;SDS011;6277;49.824;9.562;2023-02-01T00:55:36;2.33;;;1.67;;
12425;SDS011;6277;49.824;9.562;2023-02-01T00:58:01;3.17;;;2.22;;
12425;SDS011;6277;49.824;9.562;2023-02-01T01:00:27;2.60;;;2.20;;
12425;SDS011;6277;49.824;9.562;2023-02-01T01:02:52;2.72;;;2.05;;
12425;SDS011;6277;49.824;9.562;2023-02-01T01:05:18;2.67;;;1.88;;
12425;SDS011;6277;49.824;9.562;2023-02-01T01:07:43;3.30;;;1.90;;
12425;SDS011;6277;49.824;9.562;2023-02-01T01:10:09;2.63;;;1.80;;
12425;SDS011;6277;49.824;9.562;2023-02-01T01:12:35;3.17;;;1.67;;
12425;SDS011;6277;49.824;9.562;2023-02-01T01:15:01;2.22;;;1.90;;
12425;SDS011;6277;49.824;9.562;2023-02-01T01:17:26;2.83;;;1.70;;
12425;SDS011;6277;49.824;9.562;2023-02-01T01:19:52;2.97;;;1.90;;
12425;SDS011;6277;49.824;9.562;2023-02-01T01:22:17;2.40;;;1.60;;
12425;SDS011;6277;49.824;9.562;2023-02-01T01:24:43;3.08;;;1.75;;
12425;SDS011;6277;49.824;9.562;2023-02-01T01:27:09;1.73;;;1.60;;
12425;SDS011;6277;49.824;9.562;2023-02-01T01:29:34;3.13;;;1.90;;
12425;SDS011;6277;49.824;9.562;2023-02-01T01:32:00;1.90;;;1.50;;
12425;SDS011;6277;49.824;9.562;2023-02-01T01:34:25;3.28;;;1.58;;
12425;SDS011;6277;49.824;9.562;2023-02-01T01:36:51;2.75;;;1.88;;
12425;SDS011;6277;49.824;9.562;2023-02-01T01:39:16;2.25;;;1.40;;
12425;SDS011;6277;49.824;9.562;2023-02-01T01:41:42;2.33;;;1.42;;
12425;SDS011;6277;49.824;9.562;2023-02-01T01:44:55;2.15;;;1.35;;
12425;SDS011;6277;49.824;9.562;2023-02-01T01:49:38;2.22;;;1.10;;
12425;SDS011;6277;49.824;9.562;2023-02-01T01:52:04;1.10;;;1.00;;
12425;SDS011;6277;49.824;9.562;2023-02-01T01:54:44;1.38;;;1.20;;
12425;SDS011;6277;49.824;9.562;2023-02-01T01:57:13;1.77;;;1.13;;
12425;SDS011;6277;49.824;9.562;2023-02-01T01:59:45;1.63;;;1.10;;
12425;SDS011;6277;49.824;9.562;2023-02-01T02:02:15;1.63;;;1.15;;
12425;SDS011;6277;49.824;9.562;2023-02-01T02:04:41;2.55;;;1.20;;
12425;SDS011;6277;49.824;9.562;2023-02-01T02:07:08;1.63;;;1.23;;
12425;SDS011;6277;49.824;9.562;2023-02-01T02:09:41;1.48;;;1.38;;
12425;SDS011;6277;49.824;9.562;2023-02-01T02:12:08;1.05;;;0.93;;
12425;SDS011;6277;49.824;9.562;2023-02-01T02:14:34;1.35;;;1.25;;
12425;SDS011;6277;49.824;9.562;2023-02-01T02:17:11;2.22;;;1.50;;
12425;SDS011;6277;49.824;9.562;2023-02-01T02:20:07;2.03;;;1.20;;
12425;SDS011;6277;49.824;9.562;2023-02-01T02:22:48;1.63;;;1.20;;
12425;SDS011;6277;49.824;9.562;2023-02-01T02:28:22;1.55;;;1.45;;
12425;SDS011;6277;49.824;9.562;2023-02-01T02:31:06;2.65;;;1.70;;
12425;SDS011;6277;49.824;9.562;2023-02-01T02:40:00;2.03;;;1.80;;
12425;SDS011;6277;49.824;9.562;2023-02-01T02:42:37;3.67;;;1.90;;
12425;SDS011;6277;49.824;9.562;2023-02-01T02:48:36;3.17;;;1.90;;
12425;SDS011;6277;49.824;9.562;2023-02-01T02:51:29;2.45;;;1.83;;
12425;SDS011;6277;49.824;9.562;2023-02-01T02:54:28;4.18;;;2.10;;
12425;SDS011;6277;49.824;9.562;2023-02-01T02:57:30;2.25;;;1.70;;
12425;SDS011;6277;49.824;9.562;2023-02-01T03:00:28;2.42;;;1.67;;
12425;SDS011;6277;49.824;9.562;2023-02-01T03:03:15;2.13;;;1.67;;
12425;SDS011;6277;49.824;9.562;2023-02-01T03:05:59;2.08;;;1.60;;
12425;SDS011;6277;49.824;9.562;2023-02-01T03:08:26;2.25;;;1.50;;
12425;SDS011;6277;49.824;9.562;2023-02-01T03:11:05;1.58;;;1.20;;
12425;SDS011;6277;49.824;9.562;2023-02-01T03:16:34;1.73;;;1.40;;
12425;SDS011;6277;49.824;9.562;2023-02-01T03:21:54;1.23;;;1.02;;
12425;SDS011;6277;49.824;9.562;2023-02-01T03:27:01;1.33;;;1.20;;
12425;SDS011;6277;49.824;9.562;2023-02-01T03:32:20;1.23;;;1.02;;
12425;SDS011;6277;49.824;9.562;2023-02-01T03:34:47;1.30;;;1.00;;
12425;SDS011;6277;49.824;9.562;2023-02-01T03:37:16;1.30;;;1.10;;
12425;SDS011;6277;49.824;9.562;2023-02-01T03:39:57;2.63;;;1.00;;
12425;SDS011;6277;49.824;9.562;2023-02-01T03:45:19;3.38;;;1.20;;
12425;SDS011;6277;49.824;9.562;2023-02-01T03:47:56;2.37;;;1.03;;
12425;SDS011;6277;49.824;9.562;2023-02-01T03:50:25;3.03;;;1.10;;
12425;SDS011;6277;49.824;9.562;2023-02-01T03:53:02;4.45;;;1.45;;
12425;SDS011;6277;49.824;9.562;2023-02-01T03:55:34;4.60;;;1.30;;
12425;SDS011;6277;49.824;9.562;2023-02-01T03:58:06;4.82;;;1.20;;
12425;SDS011;6277;49.824;9.562;2023-02-01T04:00:40;1.85;;;0.85;;
12425;SDS011;6277;49.824;9.562;2023-02-01T04:03:08;3.22;;;0.90;;
12425;SDS011;6277;49.824;9.562;2023-02-01T04:05:34;3.20;;;1.02;;
12425;SDS011;6277;49.824;9.562;2023-02-01T04:08:00;5.35;;;1.45;;
12425;SDS011;6277;49.824;9.562;2023-02-01T04:10:26;4.63;;;1.40;;
12425;SDS011;6277;49.824;9.562;2023-02-01T04:12:52;4.05;;;1.10;;
12425;SDS011;6277;49.824;9.562;2023-02-01T04:15:18;6.15;;;1.40;;
12425;SDS011;6277;49.824;9.562;2023-02-01T04:17:43;7.82;;;1.58;;
12425;SDS011;6277;49.824;9.562;2023-02-01T04:20:09;6.03;;;1.70;;
12425;SDS011;6277;49.824;9.562;2023-02-01T04:22:35;5.13;;;1.40;;
12425;SDS011;6277;49.824;9.562;2023-02-01T04:25:01;4.72;;;1.60;;
12425;SDS011;6277;49.824;9.562;2023-02-01T04:27:27;5.63;;;1.42;;
12425;SDS011;6277;49.824;9.562;2023-02-01T04:29:52;5.07;;;1.40;;
12425;SDS011;6277;49.824;9.562;2023-02-01T04:32:21;5.18;;;1.27;;
12425;SDS011;6277;49.824;9.562;2023-02-01T04:34:46;4.47;;;1.20;;
12425;SDS011;6277;49.824;9.562;2023-02-01T04:37:12;4.68;;;1.30;;
12425;SDS011;6277;49.824;9.562;2023-02-01T04:39:37;3.53;;;1.45;;
12425;SDS011;6277;49.824;9.562;2023-02-01T04:42:03;3.67;;;1.00;;
12425;SDS011;6277;49.824;9.562;2023-02-01T04:44:28;5.85;;;1.30;;
12425;SDS011;6277;49.824;9.562;2023-02-01T04:46:54;3.60;;;1.05;;
12425;SDS011;6277;49.824;9.562;2023-02-01T04:49:20;3.03;;;1.25;;
12425;SDS011;6277;49.824;9.562;2023-02-01T04:51:46;2.25;;;0.80;;
12425;SDS011;6277;49.824;9.562;2023-02-01T04:54:13;3.28;;;0.90;;
12425;SDS011;6277;49.824;9.562;2023-02-01T04:56:38;2.00;;;0.70;;
12425;SDS011;6277;49.824;9.562;2023-02-01T04:59:04;2.58;;;0.80;;
12425;SDS011;6277;49.824;9.562;2023-02-01T05:01:30;1.85;;;0.73;;
12425;SDS011;6277;49.824;9.562;2023-02-01T05:03:56;2.78;;;0.70;;
12425;SDS011;6277;49.824;9.562;2023-02-01T05:06:22;1.95;;;0.68;;
12425;SDS011;6277;49.824;9.562;2023-02-01T05:08:48;2.10;;;0.65;;
12425;SDS011;6277;49.824;9.562;2023-02-01T05:11:14;3.28;;;0.98;;
12425;SDS011;6277;49.824;9.562;2023-02-01T05:13:59;1.92;;;0.85;;
12425;SDS011;6277;49.824;9.562;2023-02-01T05:16:25;2.28;;;0.90;;
12425;SDS011;6277;49.824;9.562;2023-02-01T05:18:50;2.05;;;1.10;;
12425;SDS011;6277;49.824;9.562;2023-02-01T05:21:17;2.88;;;0.88;;
12425;SDS011;6277;49.824;9.562;2023-02-01T05:23:42;2.10;;;0.95;;
12425;SDS011;6277;49.824;9.562;2023-02-01T05:26:27;1.08;;;0.80;;
12425;SDS011;6277;49.824;9.562;2023-02-01T05:28:52;2.88;;;1.23;;
12425;SDS011;6277;49.824;9.562;2023-02-01T05:31:18;1.95;;;1.02;;
12425;SDS011;6277;49.824;9.562;2023-02-01T05:33:43;2.10;;;1.23;;
12425;SDS011;6277;49.824;9.562;2023-02-01T05:36:09;2.22;;;1.13;;
12425;SDS011;6277;49.824;9.562;2023-02-01T05:38:34;1.95;;;1.30;;
12425;SDS011;6277;49.824;9.562;2023-02-01T05:41:00;2.75;;;1.15;;
12425;SDS011;6277;49.824;9.562;2023-02-01T05:43:25;3.08;;;1.50;;
12425;SDS011;6277;49.824;9.562;2023-02-01T05:45:51;5.82;;;1.48;;
12425;SDS011;6277;49.824;9.562;2023-02-01T05:48:17;3.20;;;1.80;;
12425;SDS011;6277;49.824;9.562;2023-02-01T05:50:43;2.55;;;1.45;;
12425;SDS011;6277;49.824;9.562;2023-02-01T05:53:09;2.47;;;1.50;;
12425;SDS011;6277;49.824;9.562;2023-02-01T05:55:35;3.80;;;1.77;;
12425;SDS011;6277;49.824;9.562;2023-02-01T05:58:01;3.08;;;1.70;;
12425;SDS011;6277;49.824;9.562;2023-02-01T06:00:27;4.75;;;1.80;;
12425;SDS011;6277;49.824;9.562;2023-02-01T06:02:52;5.07;;;1.88;;
12425;SDS011;6277;49.824;9.562;2023-02-01T06:05:18;4.47;;;1.95;;
12425;SDS011;6277;49.824;9.562;2023-02-01T06:07:43;4.72;;;2.22;;
12425;SDS011;6277;49.824;9.562;2023-02-01T06:10:09;4.30;;;1.90;;
12425;SDS011;6277;49.824;9.562;2023-02-01T06:12:35;2.97;;;1.75;;
12425;SDS011;6277;49.824;9.562;2023-02-01T06:15:01;4.35;;;2.15;;
12425;SDS011;6277;49.824;9.562;2023-02-01T06:17:26;4.20;;;2.10;;
12425;SDS011;6277;49.824;9.562;2023-02-01T06:19:52;4.45;;;1.88;;
12425;SDS011;6277;49.824;9.562;2023-02-01T06:22:17;3.85;;;1.83;;
12425;SDS011;6277;49.824;9.562;2023-02-01T06:24:43;4.57;;;2.30;;
12425;SDS011;6277;49.824;9.562;2023-02-01T06:27:08;4.93;;;2.38;;
12425;SDS011;6277;49.824;9.562;2023-02-01T06:29:34;5.57;;;2.47;;
12425;SDS011;6277;49.824;9.562;2023-02-01T06:32:00;4.75;;;2.10;;
12425;SDS011;6277;49.824;9.562;2023-02-01T06:34:26;6.70;;;2.42;;
12425;SDS011;6277;49.824;9.562;2023-02-01T06:36:51;6.68;;;2.47;;
12425;SDS011;6277;49.824;9.562;2023-02-01T06:39:17;9.02;;;2.80;;
12425;SDS011;6277;49.824;9.562;2023-02-01T06:41:52;4.03;;;1.90;;
12425;SDS011;6277;49.824;9.562;2023-02-01T06:44:17;5.88;;;2.10;;
12425;SDS011;6277;49.824;9.562;2023-02-01T06:46:43;6.15;;;2.40;;
12425;SDS011;6277;49.824;9.562;2023-02-01T06:49:08;6.05;;;2.33;;
12425;SDS011;6277;49.824;9.562;2023-02-01T06:51:34;6.50;;;2.60;;
12425;SDS011;6277;49.824;9.562;2023-02-01T06:53:59;7.35;;;2.33;;
12425;SDS011;6277;49.824;9.562;2023-02-01T06:56:25;8.20;;;2.65;;
12425;SDS011;6277;49.824;9.562;2023-02-01T06:58:51;7.15;;;2.38;;
12425;SDS011;6277;49.824;9.562;2023-02-01T07:01:17;5.07;;;2.08;;
12425;SDS011;6277;49.824;9.562;2023-02-01T07:03:43;5.47;;;2.22;;
12425;SDS011;6277;49.824;9.562;2023-02-01T07:06:12;5.95;;;2.20;;
12425;SDS011;6277;49.824;9.562;2023-02-01T07:08:38;6.20;;;2.15;;
12425;SDS011;6277;49.824;9.562;2023-02-01T07:11:04;5.82;;;2.50;;
12425;SDS011;6277;49.824;9.562;2023-02-01T07:13:34;7.78;;;2.50;;
12425;SDS011;6277;49.824;9.562;2023-02-01T07:16:01;4.57;;;2.40;;
12425;SDS011;6277;49.824;9.562;2023-02-01T07:18:28;5.75;;;2.60;;
12425;SDS011;6277;49.824;9.562;2023-02-01T07:20:54;6.38;;;2.55;;
12425;SDS011;6277;49.824;9.562;2023-02-01T07:23:20;6.47;;;2.10;;
12425;SDS011;6277;49.824;9.562;2023-02-01T07:25:46;8.15;;;2.60;;
12425;SDS011;6277;49.824;9.562;2023-02-01T07:28:11;6.07;;;2.03;;
12425;SDS011;6277;49.824;9.562;2023-02-01T07:30:37;4.70;;;2.10;;
12425;SDS011;6277;49.824;9.562;2023-02-01T07:33:03;5.95;;;2.30;;
12425;SDS011;6277;49.824;9.562;2023-02-01T07:35:28;8.90;;;2.55;;
12425;SDS011;6277;49.824;9.562;2023-02-01T07:37:54;5.35;;;1.95;;
12425;SDS011;6277;49.824;9.562;2023-02-01T07:40:21;5.85;;;2.00;;
12425;SDS011;6277;49.824;9.562;2023-02-01T07:42:53;6.50;;;2.53;;
12425;SDS011;6277;49.824;9.562;2023-02-01T07:45:22;5.63;;;2.35;;
12425;SDS011;6277;49.824;9.562;2023-02-01T07:47:48;4.97;;;2.22;;
12425;SDS011;6277;49.824;9.562;2023-02-01T07:50:16;7.15;;;2.50;;
12425;SDS011;6277;49.824;9.562;2023-02-01T07:52:41;7.68;;;2.67;;
12425;SDS011;6277;49.824;9.562;2023-02-01T07:55:07;4.97;;;2.15;;
12425;SDS011;6277;49.824;9.562;2023-02-01T07:57:33;5.18;;;2.28;;
12425;SDS011;6277;49.824;9.562;2023-02-01T07:59:58;6.57;;;1.90;;
12425;SDS011;6277;49.824;9.562;2023-02-01T08:02:42;4.80;;;2.40;;
12425;SDS011;6277;49.824;9.562;2023-02-01T08:05:08;4.63;;;1.92;;
12425;SDS011;6277;49.824;9.562;2023-02-01T08:07:34;5.47;;;2.30;;
12425;SDS011;6277;49.824;9.562;2023-02-01T08:10:00;5.75;;;2.00;;
12425;SDS011;6277;49.824;9.562;2023-02-01T08:12:25;6.30;;;2.58;;
12425;SDS011;6277;49.824;9.562;2023-02-01T08:14:52;5.97;;;2.47;;
12425;SDS011;6277;49.824;9.562;2023-02-01T08:17:18;5.68;;;2.05;;
12425;SDS011;6277;49.824;9.562;2023-02-01T08:19:43;5.03;;;1.88;;
12425;SDS011;6277;49.824;9.562;2023-02-01T08:22:09;4.88;;;2.10;;
12425;SDS011;6277;49.824;9.562;2023-02-01T08:24:35;7.38;;;1.92;;
12425;SDS011;6277;49.824;9.562;2023-02-01T08:27:01;5.50;;;2.30;;
12425;SDS011;6277;49.824;9.562;2023-02-01T08:29:27;5.82;;;1.92;;
12425;SDS011;6277;49.824;9.562;2023-02-01T08:31:53;11.75;;;2.13;;
12425;SDS011;6277;49.824;9.562;2023-02-01T08:34:19;6.90;;;1.90;;
12425;SDS011;6277;49.824;9.562;2023-02-01T08:36:45;6.20;;;2.05;;
12425;SDS011;6277;49.824;9.562;2023-02-01T08:39:10;8.10;;;2.00;;
12425;SDS011;6277;49.824;9.562;2023-02-01T08:41:36;6.70;;;2.13;;
12425;SDS011;6277;49.824;9.562;2023-02-01T08:44:02;6.28;;;1.88;;
12425;SDS011;6277;49.824;9.562;2023-02-01T08:46:28;9.27;;;2.20;;
12425;SDS011;6277;49.824;9.562;2023-02-01T08:48:54;6.15;;;2.20;;
12425;SDS011;6277;49.824;9.562;2023-02-01T08:51:21;5.82;;;1.92;;
12425;SDS011;6277;49.824;9.562;2023-02-01T08:53:47;8.75;;;2.17;;
12425;SDS011;6277;49.824;9.562;2023-02-01T08:56:14;7.55;;;2.22;;
12425;SDS011;6277;49.824;9.562;2023-02-01T08:58:41;7.47;;;2.30;;
12425;SDS011;6277;49.824;9.562;2023-02-01T09:01:07;7.70;;;2.20;;
12425;SDS011;6277;49.824;9.562;2023-02-01T09:03:34;6.72;;;2.38;;
12425;SDS011;6277;49.824;9.562;2023-02-01T09:06:01;7.43;;;1.80;;
12425;SDS011;6277;49.824;9.562;2023-02-01T09:08:31;5.70;;;2.20;;
12425;SDS011;6277;49.824;9.562;2023-02-01T09:11:00;8.52;;;2.30;;
12425;SDS011;6277;49.824;9.562;2023-02-01T09:13:28;7.53;;;2.35;;
12425;SDS011;6277;49.824;9.562;2023-02-01T09:15:53;7.35;;;2.50;;
12425;SDS011;6277;49.824;9.562;2023-02-01T09:18:19;8.57;;;2.40;;
12425;SDS011;6277;49.824;9.562;2023-02-01T09:20:45;8.77;;;2.38;;
12425;SDS011;6277;49.824;9.562;2023-02-01T09:23:10;10.38;;;2.47;;
12425;SDS011;6277;49.824;9.562;2023-02-01T09:25:36;6.57;;;1.98;;
12425;SDS011;6277;49.824;9.562;2023-02-01T09:28:03;8.18;;;2.30;;
12425;SDS011;6277;49.824;9.562;2023-02-01T09:30:31;8.07;;;2.22;;
12425;SDS011;6277;49.824;9.562;2023-02-01T09:32:58;9.05;;;2.50;;
12425;SDS011;6277;49.824;9.562;2023-02-01T09:35:23;5.25;;;2.28;;
12425;SDS011;6277;49.824;9.562;2023-02-01T09:37:49;9.13;;;2.13;;
12425;SDS011;6277;49.824;9.562;2023-02-01T09:40:17;7.00;;;2.13;;
12425;SDS011;6277;49.824;9.562;2023-02-01T09:42:48;6.22;;;2.08;;
12425;SDS011;6277;49.824;9.562;2023-02-01T09:48:02;6.43;;;2.13;;
12425;SDS011;6277;49.824;9.562;2023-02-01T09:50:43;5.93;;;1.80;;
12425;SDS011;6277;49.824;9.562;2023-02-01T09:53:17;7.80;;;2.22;;
12425;SDS011;6277;49.824;9.562;2023-02-01T09:55:47;6.50;;;1.85;;
12425;SDS011;6277;49.824;9.562;2023-02-01T09:58:22;10.93;;;2.40;;
12425;SDS011;6277;49.824;9.562;2023-02-01T10:03:42;8.52;;;2.38;;
12425;SDS011;6277;49.824;9.562;2023-02-01T10:06:13;10.23;;;2.40;;
12425;SDS011;6277;49.824;9.562;2023-02-01T10:11:39;10.82;;;2.15;;
12425;SDS011;6277;49.824;9.562;2023-02-01T10:24:51;8.00;;;1.95;;
12425;SDS011;6277;49.824;9.562;2023-02-01T10:27:25;10.23;;;2.38;;
12425;SDS011;6277;49.824;9.562;2023-02-01T10:30:01;8.50;;;1.77;;
12425;SDS011;6277;49.824;9.562;2023-02-01T10:32:33;8.63;;;2.00;;
12425;SDS011;6277;49.824;9.562;2023-02-01T10:35:00;8.65;;;2.13;;
12425;SDS011;6277;49.824;9.562;2023-02-01T10:37:34;7.30;;;1.83;;
12425;SDS011;6277;49.824;9.562;2023-02-01T10:40:00;6.57;;;1.80;;
12425;SDS011;6277;49.824;9.562;2023-02-01T10:42:44;7.35;;;2.13;;
12425;SDS011;6277;49.824;9.562;2023-02-01T10:45:13;8.40;;;2.33;;
12425;SDS011;6277;49.824;9.562;2023-02-01T10:47:43;8.07;;;2.08;;
12425;SDS011;6277;49.824;9.562;2023-02-01T10:50:13;11.48;;;2.03;;
12425;SDS011;6277;49.824;9.562;2023-02-01T11:00:48;8.32;;;1.50;;
12425;SDS011;6277;49.824;9.562;2023-02-01T11:06:17;6.15;;;1.65;;
12425;SDS011;6277;49.824;9.562;2023-02-01T11:14:17;8.20;;;2.00;;
12425;SDS011;6277;49.824;9.562;2023-02-01T11:16:52;7.38;;;1.95;;
12425;SDS011;6277;49.824;9.562;2023-02-01T11:19:38;7.25;;;1.67;;
12425;SDS011;6277;49.824;9.562;2023-02-01T11:22:04;9.13;;;2.08;;
12425;SDS011;6277;49.824;9.562;2023-02-01T11:24:31;8.63;;;1.85;;
12425;SDS011;6277;49.824;9.562;2023-02-01T11:27:00;7.75;;;1.90;;
12425;SDS011;6277;49.824;9.562;2023-02-01T11:29:29;7.30;;;1.80;;
12425;SDS011;6277;49.824;9.562;2023-02-01T11:34:37;6.50;;;1.40;;
12425;SDS011;6277;49.824;9.562;2023-02-01T11:37:05;7.57;;;1.80;;
12425;SDS011;6277;49.824;9.562;2023-02-01T11:39:41;5.72;;;1.67;;
12425;SDS011;6277;49.824;9.562;2023-02-01T11:42:16;7.53;;;1.77;;
12425;SDS011;6277;49.824;9.562;2023-02-01T11:44:43;6.55;;;1.70;;
12425;SDS011;6277;49.824;9.562;2023-02-01T11:47:23;8.13;;;2.17;;
12425;SDS011;6277;49.824;9.562;2023-02-01T11:49:57;8.10;;;1.80;;
12425;SDS011;6277;49.824;9.562;2023-02-01T12:01:04;6.38;;;1.65;;
12425;SDS011;6277;49.824;9.562;2023-02-01T12:09:11;5.95;;;1.77;;
12425;SDS011;6277;49.824;9.562;2023-02-01T12:17:18;6.82;;;1.80;;
12425;SDS011;6277;49.824;9.562;2023-02-01T12:23:09;5.00;;;1.40;;
12425;SDS011;6277;49.824;9.562;2023-02-01T12:25:46;8.60;;;1.93;;
12425;SDS011;6277;49.824;9.562;2023-02-01T12:31:12;5.70;;;1.70;;
12425;SDS011;6277;49.824;9.562;2023-02-01T12:38:57;6.88;;;1.65;;
12425;SDS011;6277;49.824;9.562;2023-02-01T12:41:37;4.97;;;1.40;;
12425;SDS011;6277;49.824;9.562;2023-02-01T12:50:02;9.77;;;1.92;;
12425;SDS011;6277;49.824;9.562;2023-02-01T12:52:35;8.02;;;1.60;;
12425;SDS011;6277;49.824;9.562;2023-02-01T12:57:50;7.80;;;1.65;;
12425;SDS011;6277;49.824;9.562;2023-02-01T13:00:44;5.38;;;1.45;;
12425;SDS011;6277;49.824;9.562;2023-02-01T13:03:20;7.40;;;1.60;;
12425;SDS011;6277;49.824;9.562;2023-02-01T13:11:18;6.30;;;1.90;;
12425;SDS011;6277;49.824;9.562;2023-02-01T13:16:47;8.10;;;1.80;;
12425;SDS011;6277;49.824;9.562;2023-02-01T13:19:26;7.68;;;1.80;;
12425;SDS011;6277;49.824;9.562;2023-02-01T13:22:11;5.88;;;1.75;;
12425;SDS011;6277;49.824;9.562;2023-02-01T13:24:44;9.95;;;2.08;;
12425;SDS011;6277;49.824;9.562;2023-02-01T13:27:17;7.32;;;1.92;;
12425;SDS011;6277;49.824;9.562;2023-02-01T13:29:51;7.82;;;1.75;;
12425;SDS011;6277;49.824;9.562;2023-02-01T13:40:37;7.68;;;1.75;;
12425;SDS011;6277;49.824;9.562;2023-02-01T13:43:23;6.55;;;1.40;;
12425;SDS011;6277;49.824;9.562;2023-02-01T13:45:54;7.13;;;1.60;;
12425;SDS011;6277;49.824;9.562;2023-02-01T13:48:31;4.03;;;1.20;;
12425;SDS011;6277;49.824;9.562;2023-02-01T13:51:03;7.82;;;1.65;;
12425;SDS011;6277;49.824;9.562;2023-02-01T13:53:33;4.95;;;1.60;;
12425;SDS011;6277;49.824;9.562;2023-02-01T13:56:11;6.25;;;1.48;;
12425;SDS011;6277;49.824;9.562;2023-02-01T13:58:40;6.40;;;1.42;;
12425;SDS011;6277;49.824;9.562;2023-02-01T14:03:55;5.70;;;1.50;;
12425;SDS011;6277;49.824;9.562;2023-02-01T14:19:25;7.05;;;1.20;;
12425;SDS011;6277;49.824;9.562;2023-02-01T14:21:58;7.15;;;1.80;;
12425;SDS011;6277;49.824;9.562;2023-02-01T14:24:39;7.47;;;1.60;;
12425;SDS011;6277;49.824;9.562;2023-02-01T14:29:38;7.97;;;1.98;;
12425;SDS011;6277;49.824;9.562;2023-02-01T14:32:19;4.95;;;1.50;;
12425;SDS011;6277;49.824;9.562;2023-02-01T14:45:46;7.55;;;1.58;;
12425;SDS011;6277;49.824;9.562;2023-02-01T14:47:42;8.43;;;1.70;;
12425;SDS011;6277;49.824;9.562;2023-02-01T14:52:58;7.90;;;1.42;;
12425;SDS011;6277;49.824;9.562;2023-02-01T14:55:40;8.10;;;1.60;;
12425;SDS011;6277;49.824;9.562;2023-02-01T15:03:47;7.75;;;1.90;;
12425;SDS011;6277;49.824;9.562;2023-02-01T15:06:18;7.25;;;1.75;;
12425;SDS011;6277;49.824;9.562;2023-02-01T15:08:48;6.88;;;1.70;;
12425;SDS011;6277;49.824;9.562;2023-02-01T15:11:16;5.68;;;1.70;;
12425;SDS011;6277;49.824;9.562;2023-02-01T15:13:47;5.15;;;1.30;;
12425;SDS011;6277;49.824;9.562;2023-02-01T15:16:19;9.13;;;1.80;;
12425;SDS011;6277;49.824;9.562;2023-02-01T15:18:47;6.18;;;1.42;;
12425;SDS011;6277;49.824;9.562;2023-02-01T15:21:18;8.43;;;1.92;;
12425;SDS011;6277;49.824;9.562;2023-02-01T15:23:46;9.82;;;2.03;;
12425;SDS011;6277;49.824;9.562;2023-02-01T15:26:29;9.50;;;1.60;;
12425;SDS011;6277;49.824;9.562;2023-02-01T15:28:59;7.35;;;1.85;;
12425;SDS011;6277;49.824;9.562;2023-02-01T15:31:32;7.88;;;1.77;;
12425;SDS011;6277;49.824;9.562;2023-02-01T15:33:59;6.18;;;1.55;;
12425;SDS011;6277;49.824;9.562;2023-02-01T15:36:25;7.75;;;1.88;;
12425;SDS011;6277;49.824;9.562;2023-02-01T15:41:39;7.90;;;2.03;;
12425;SDS011;6277;49.824;9.562;2023-02-01T15:44:14;8.05;;;1.80;;
12425;SDS011;6277;49.824;9.562;2023-02-01T15:46:57;6.20;;;1.65;;
12425;SDS011;6277;49.824;9.562;2023-02-01T15:49:26;10.60;;;1.85;;
12425;SDS011;6277;49.824;9.562;2023-02-01T15:51:54;7.85;;;1.30;;
12425;SDS011;6277;49.824;9.562;2023-02-01T15:57:14;9.38;;;2.00;;
12425;SDS011;6277;49.824;9.562;2023-02-01T15:59:55;4.95;;;1.30;;
12425;SDS011;6277;49.824;9.562;2023-02-01T16:05:04;4.57;;;1.35;;
12425;SDS011;6277;49.824;9.562;2023-02-01T16:07:55;6.63;;;1.60;;
12425;SDS011;6277;49.824;9.562;2023-02-01T16:10:28;7.00;;;1.55;;
12425;SDS011;6277;49.824;9.562;2023-02-01T16:12:54;5.88;;;1.60;;
12425;SDS011;6277;49.824;9.562;2023-02-01T16:15:24;6.05;;;1.65;;
12425;SDS011;6277;49.824;9.562;2023-02-01T16:17:51;5.75;;;1.30;;
12425;SDS011;6277;49.824;9.562;2023-02-01T16:20:16;8.07;;;1.50;;
12425;SDS011;6277;49.824;9.562;2023-02-01T16:22:42;4.95;;;1.42;;
12425;SDS011;6277;49.824;9.562;2023-02-01T16:25:08;7.45;;;1.50;;
12425;SDS011;6277;49.824;9.562;2023-02-01T16:27:33;10.48;;;2.17;;
12425;SDS011;6277;49.824;9.562;2023-02-01T16:29:59;6.18;;;1.63;;
12425;SDS011;6277;49.824;9.562;2023-02-01T16:32:24;5.45;;;1.60;;
12425;SDS011;6277;49.824;9.562;2023-02-01T16:34:51;6.20;;;1.30;;
12425;SDS011;6277;49.824;9.562;2023-02-01T16:37:20;5.65;;;1.40;;
12425;SDS011;6277;49.824;9.562;2023-02-01T16:39:50;6.88;;;1.67;;
12425;SDS011;6277;49.824;9.562;2023-02-01T16:42:16;7.70;;;1.40;;
12425;SDS011;6277;49.824;9.562;2023-02-01T16:44:42;5.03;;;1.27;;
12425;SDS011;6277;49.824;9.562;2023-02-01T16:47:11;5.30;;;1.40;;
12425;SDS011;6277;49.824;9.562;2023-02-01T16:49:47;4.80;;;1.45;;
12425;SDS011;6277;49.824;9.562;2023-02-01T16:52:14;9.00;;;1.73;;
12425;SDS011;6277;49.824;9.562;2023-02-01T16:54:44;9.85;;;1.92;;
12425;SDS011;6277;49.824;9.562;2023-02-01T16:57:11;8.45;;;1.98;;
12425;SDS011;6277;49.824;9.562;2023-02-01T16:59:38;8.07;;;1.90;;
12425;SDS011;6277;49.824;9.562;2023-02-01T17:02:04;8.32;;;1.85;;
12425;SDS011;6277;49.824;9.562;2023-02-01T17:04:30;7.28;;;1.70;;
12425;SDS011;6277;49.824;9.562;2023-02-01T17:06:55;8.30;;;1.63;;
12425;SDS011;6277;49.824;9.562;2023-02-01T17:09:23;9.43;;;1.63;;
12425;SDS011;6277;49.824;9.562;2023-02-01T17:11:50;8.48;;;1.90;;
12425;SDS011;6277;49.824;9.562;2023-02-01T17:14:16;9.27;;;1.90;;
12425;SDS011;6277;49.824;9.562;2023-02-01T17:16:44;6.40;;;1.85;;
12425;SDS011;6277;49.824;9.562;2023-02-01T17:19:14;5.13;;;1.58;;
12425;SDS011;6277;49.824;9.562;2023-02-01T17:21:44;5.60;;;1.80;;
12425;SDS011;6277;49.824;9.562;2023-02-01T17:24:21;5.72;;;1.38;;
12425;SDS011;6277;49.824;9.562;2023-02-01T17:26:49;4.95;;;1.30;;
12425;SDS011;6277;49.824;9.562;2023-02-01T17:29:16;7.30;;;1.65;;
12425;SDS011;6277;49.824;9.562;2023-02-01T17:31:43;4.57;;;1.25;;
12425;SDS011;6277;49.824;9.562;2023-02-01T17:34:12;6.40;;;1.45;;
12425;SDS011;6277;49.824;9.562;2023-02-01T17:36:43;4.03;;;1.20;;
12425;SDS011;6277;49.824;9.562;2023-02-01T17:39:11;7.22;;;1.98;;
12425;SDS011;6277;49.824;9.562;2023-02-01T17:41:56;5.97;;;1.80;;
12425;SDS011;6277;49.824;9.562;2023-02-01T17:44:23;8.25;;;1.88;;
12425;SDS011;6277;49.824;9.562;2023-02-01T17:46:49;5.95;;;1.40;;
12425;SDS011;6277;49.824;9.562;2023-02-01T17:49:15;5.15;;;1.42;;
12425;SDS011;6277;49.824;9.562;2023-02-01T17:51:40;8.40;;;1.98;;
12425;SDS011;6277;49.824;9.562;2023-02-01T17:54:12;11.40;;;2.40;;
12425;SDS011;6277;49.824;9.562;2023-02-01T17:56:39;6.85;;;1.50;;
12425;SDS011;6277;49.824;9.562;2023-02-01T17:59:04;6.45;;;1.50;;
12425;SDS011;6277;49.824;9.562;2023-02-01T18:01:30;6.70;;;1.75;;
12425;SDS011;6277;49.824;9.562;2023-02-01T18:03:56;7.55;;;1.40;;